Lowell Highlands, MA

10 Minute Time Series

01-20-2020 07:20 AM

TimeTempHumidityDewpointBarometerWindSpeedWindGustWind DirRain
12:10 AM18.5°F61%7.3°F29.929 inHg8 mph18 mph315° (NW)0.00 in
12:20 AM18.5°F61%7.3°F29.935 inHg8 mph15 mph315° (NW)0.00 in
12:30 AM18.4°F61%7.2°F29.937 inHg7 mph16 mph315° (NW)0.00 in
12:40 AM18.4°F62%7.6°F29.940 inHg6 mph15 mph315° (NW)0.00 in
12:50 AM18.4°F62%7.6°F29.946 inHg7 mph16 mph338° (NNW)0.00 in
01:00 AM18.4°F62%7.6°F29.945 inHg8 mph18 mph315° (NW)0.00 in
01:10 AM18.4°F62%7.6°F29.944 inHg8 mph18 mph338° (NNW)0.00 in
01:20 AM18.3°F62%7.5°F29.949 inHg6 mph13 mph315° (NW)0.00 in
01:30 AM18.2°F62%7.4°F29.955 inHg5 mph14 mph315° (NW)0.00 in
01:40 AM18.2°F63%7.8°F29.958 inHg5 mph10 mph338° (NNW)0.00 in
01:50 AM18.1°F62%7.3°F29.958 inHg8 mph15 mph315° (NW)0.00 in
02:00 AM18.0°F62%7.2°F29.961 inHg9 mph17 mph315° (NW)0.00 in
02:10 AM17.9°F63%7.5°F29.968 inHg7 mph17 mph315° (NW)0.00 in
02:20 AM17.7°F62%6.9°F29.965 inHg10 mph19 mph338° (NNW)0.00 in
02:30 AM17.5°F63%7.1°F29.968 inHg9 mph19 mph338° (NNW)0.00 in
02:40 AM17.2°F64%7.1°F29.970 inHg7 mph15 mph315° (NW)0.00 in
02:50 AM17.1°F64%7.1°F29.971 inHg6 mph14 mph315° (NW)0.00 in
03:00 AM16.9°F64%6.9°F29.969 inHg8 mph18 mph338° (NNW)0.00 in
03:10 AM16.7°F64%6.7°F29.970 inHg8 mph17 mph338° (NNW)0.00 in
03:20 AM16.5°F65%6.8°F29.971 inHg8 mph18 mph338° (NNW)0.00 in
03:30 AM16.4°F65%6.7°F29.972 inHg7 mph15 mph315° (NW)0.00 in
03:40 AM16.2°F65%6.5°F29.976 inHg6 mph12 mph315° (NW)0.00 in
03:50 AM16.1°F66%6.8°F29.981 inHg5 mph11 mph315° (NW)0.00 in
04:00 AM16.0°F66%6.7°F29.991 inHg5 mph13 mph338° (NNW)0.00 in
04:10 AM15.9°F66%6.6°F29.992 inHg5 mph11 mph315° (NW)0.00 in
04:20 AM15.7°F66%6.4°F29.991 inHg7 mph16 mph338° (NNW)0.00 in
04:30 AM15.6°F65%6.0°F29.992 inHg8 mph14 mph315° (NW)0.00 in
04:40 AM15.4°F66%6.1°F29.999 inHg7 mph15 mph338° (NNW)0.00 in
04:50 AM15.2°F66%5.9°F30.000 inHg6 mph14 mph315° (NW)0.00 in
05:00 AM15.0°F66%5.7°F29.998 inHg5 mph12 mph338° (NNW)0.00 in
05:10 AM14.9°F66%5.6°F30.007 inHg6 mph10 mph315° (NW)0.00 in
05:20 AM14.9°F67%6.0°F30.019 inHg5 mph12 mph315° (NW)0.00 in
05:30 AM14.9°F67%6.0°F30.029 inHg5 mph9 mph315° (NW)0.00 in
05:40 AM14.9°F67%6.0°F30.040 inHg4 mph10 mph338° (NNW)0.00 in
05:50 AM14.9°F67%6.0°F30.046 inHg5 mph9 mph315° (NW)0.00 in
06:00 AM14.9°F67%6.0°F30.051 inHg6 mph11 mph315° (NW)0.00 in
06:10 AM14.7°F67%5.8°F30.059 inHg6 mph12 mph315° (NW)0.00 in
06:20 AM14.7°F67%5.8°F30.071 inHg6 mph11 mph315° (NW)0.00 in
06:30 AM14.6°F67%5.7°F30.075 inHg6 mph12 mph315° (NW)0.00 in
06:40 AM14.5°F67%5.6°F30.082 inHg7 mph15 mph315° (NW)0.00 in
06:50 AM14.3°F67%5.4°F30.086 inHg7 mph12 mph315° (NW)0.00 in
07:00 AM14.1°F67%5.2°F30.096 inHg7 mph12 mph315° (NW)0.00 in
07:10 AM14.0°F67%5.1°F30.101 inHg7 mph12 mph315° (NW)0.00 in
07:20 AM13.8°F67%4.9°F30.105 inHg7 mph12 mph315° (NW)0.00 in